Time;durP1;ratioP1;P1;durP2;ratioP2;P2;SDS_P1;SDS_P2;PMS_P1;PMS_P2;Temp;Humidity;BMP_temperature;BMP_pressure;BME280_temperature;BME280_humidity;BME280_pressure;Samples;Min_cycle;Max_cycle;Signal;HPM_P1;HPM_P2
2023/01/02 00:02:15;;;;;;;3.83;2.00;;;;;;;14.24;nan;100592.34;5032074;28;20041;-85
2023/01/02 00:04:41;;;;;;;3.42;1.90;;;;;;;14.16;nan;100586.25;5031877;28;20081;-84
2023/01/02 00:07:06;;;;;;;7.00;2.53;;;;;;;14.10;nan;100595.72;5032682;28;20030;-85
2023/01/02 00:09:31;;;;;;;5.10;2.10;;;;;;;14.06;nan;100589.09;5016033;28;20302;-85
2023/01/02 00:11:56;;;;;;;4.82;2.03;;;;;;;14.02;nan;100585.97;5033387;28;20299;-85
2023/01/02 00:14:22;;;;;;;5.30;2.23;;;;;;;13.96;nan;100581.31;5033547;28;20428;-85
2023/01/02 00:16:47;;;;;;;6.10;2.60;;;;;;;13.91;nan;100582.84;5012320;28;20286;-85
2023/01/02 00:19:12;;;;;;;6.67;2.20;;;;;;;13.90;nan;100571.41;5013756;28;20087;-85
2023/01/02 00:21:37;;;;;;;6.00;2.35;;;;;;;13.85;nan;100557.78;5018921;28;20822;-85
2023/01/02 00:24:03;;;;;;;5.27;2.40;;;;;;;13.87;nan;100570.91;5032696;28;20048;-85
2023/01/02 00:26:29;;;;;;;3.95;2.10;;;;;;;13.83;nan;100570.44;5031416;28;20268;-84
2023/01/02 00:28:54;;;;;;;7.72;2.60;;;;;;;13.88;nan;100557.44;5032794;28;20258;-84
2023/01/02 00:31:20;;;;;;;6.68;2.70;;;;;;;13.80;nan;100550.34;5037077;28;20105;-84
2023/01/02 00:33:45;;;;;;;6.03;2.40;;;;;;;13.76;nan;100551.69;5031846;28;20491;-84
2023/01/02 00:36:12;;;;;;;4.18;2.40;;;;;;;13.76;nan;100557.00;5023329;28;20025;-85
2023/01/02 00:38:39;;;;;;;4.57;2.33;;;;;;;13.71;nan;100551.38;5031632;28;20033;-85
2023/01/02 00:41:04;;;;;;;7.70;3.03;;;;;;;13.68;nan;100540.22;5014692;28;20093;-86
2023/01/02 00:43:29;;;;;;;4.32;2.50;;;;;;;13.65;nan;100533.44;5014124;28;20030;-86
2023/01/02 00:45:55;;;;;;;4.85;2.30;;;;;;;13.66;nan;100539.56;5015015;28;20052;-85
2023/01/02 00:48:21;;;;;;;6.47;2.63;;;;;;;13.63;nan;100537.25;5030640;28;20069;-86
2023/01/02 00:50:47;;;;;;;5.38;2.20;;;;;;;13.67;nan;100541.25;5013708;28;20061;-86
2023/01/02 00:53:13;;;;;;;5.82;2.75;;;;;;;13.74;nan;100532.41;5031041;28;20030;-86
2023/01/02 00:55:38;;;;;;;4.85;2.40;;;;;;;13.85;nan;100539.19;5014486;28;20026;-86
2023/01/02 00:58:03;;;;;;;5.50;2.47;;;;;;;13.95;nan;100538.97;5012732;28;20033;-86
2023/01/02 01:00:28;;;;;;;3.50;2.10;;;;;;;13.99;nan;100551.75;5031920;28;20283;-86
2023/01/02 01:02:56;;;;;;;4.40;2.17;;;;;;;14.02;nan;100537.28;5031072;28;20033;-86
2023/01/02 01:05:21;;;;;;;4.85;2.13;;;;;;;14.04;nan;100537.94;5032073;28;20041;-86
2023/01/02 01:07:46;;;;;;;4.53;2.42;;;;;;;14.05;nan;100544.09;5013186;28;20030;-86
2023/01/02 01:10:12;;;;;;;5.40;2.00;;;;;;;14.04;nan;100527.31;5013669;28;20056;-86
2023/01/02 01:12:37;;;;;;;6.07;2.70;;;;;;;14.05;nan;100534.28;5014154;28;20025;-86
2023/01/02 01:15:04;;;;;;;5.85;2.40;;;;;;;14.08;nan;100520.63;5014248;28;20049;-86
2023/01/02 01:17:30;;;;;;;4.50;2.40;;;;;;;14.12;nan;100527.25;5008745;28;20038;-87
2023/01/02 01:19:56;;;;;;;8.65;2.35;;;;;;;14.15;nan;100531.38;5012733;28;20033;-87
2023/01/02 01:22:21;;;;;;;5.45;2.33;;;;;;;14.19;nan;100528.19;5026213;28;20049;-86
2023/01/02 01:24:46;;;;;;;4.95;2.40;;;;;;;14.25;nan;100526.66;5004681;28;20044;-85
2023/01/02 01:27:11;;;;;;;6.68;2.25;;;;;;;14.25;nan;100524.00;5024700;28;20576;-86
2023/01/02 01:29:37;;;;;;;7.47;2.47;;;;;;;14.31;nan;100527.81;5017021;28;20063;-86
2023/01/02 01:32:02;;;;;;;5.38;2.15;;;;;;;14.33;nan;100526.63;5028837;28;20041;-86
2023/01/02 01:34:27;;;;;;;4.68;2.25;;;;;;;14.32;nan;100516.97;5011489;28;20096;-86
2023/01/02 01:36:53;;;;;;;4.25;1.90;;;;;;;14.34;nan;100522.13;5002532;28;20038;-86
2023/01/02 01:39:18;;;;;;;5.30;2.20;;;;;;;14.32;nan;100521.47;5011492;28;20045;-86
2023/01/02 01:41:43;;;;;;;5.93;2.30;;;;;;;14.34;nan;100524.78;5031109;28;20037;-86
2023/01/02 01:44:46;;;;;;;6.32;2.20;;;;;;;14.33;nan;100515.16;5030809;28;20086;-86
2023/01/02 01:47:39;;;;;;;5.28;2.13;;;;;;;14.36;nan;100517.47;5039196;28;20029;-87
2023/01/02 01:50:18;;;;;;;5.57;2.20;;;;;;;14.35;nan;100521.13;5052384;28;20450;-87
2023/01/02 01:52:54;;;;;;;8.85;2.50;;;;;;;14.38;nan;100515.47;5038700;28;20049;-87
2023/01/02 01:55:25;;;;;;;4.28;2.28;;;;;;;14.38;nan;100518.94;5041483;28;20037;-87
2023/01/02 01:57:56;;;;;;;6.15;2.00;;;;;;;14.40;nan;100514.28;5047426;28;20034;-86
2023/01/02 02:00:21;;;;;;;5.93;2.40;;;;;;;14.40;nan;100508.97;5030651;28;20034;-87
2023/01/02 02:02:50;;;;;;;6.85;2.58;;;;;;;14.49;nan;100519.53;5037407;28;20037;-87
2023/01/02 02:05:20;;;;;;;5.15;2.15;;;;;;;14.53;nan;100511.00;5042892;28;20048;-86
2023/01/02 02:08:01;;;;;;;2.97;2.00;;;;;;;14.55;nan;100510.88;5029109;28;20030;-86
2023/01/02 02:10:26;;;;;;;5.57;2.00;;;;;;;14.54;nan;100502.06;5006431;28;20049;-86
2023/01/02 02:12:51;;;;;;;9.45;2.03;;;;;;;14.59;nan;100507.69;5031316;28;20069;-86
2023/01/02 02:15:26;;;;;;;7.32;2.40;;;;;;;14.57;nan;100514.19;5029934;28;20164;-86
2023/01/02 02:18:24;;;;;;;5.82;2.33;;;;;;;14.55;nan;100506.38;5029399;28;20033;-86
2023/01/02 02:21:08;;;;;;;5.28;2.03;;;;;;;14.51;nan;100509.53;5011835;28;20065;-86
2023/01/02 02:23:34;;;;;;;5.65;2.53;;;;;;;14.55;nan;100503.72;5028324;28;20037;-86
2023/01/02 02:26:16;;;;;;;4.43;2.20;;;;;;;14.59;nan;100491.72;5006522;28;20122;-86
2023/01/02 02:29:03;;;;;;;6.50;2.30;;;;;;;14.64;nan;100492.00;5008888;28;20044;-86
2023/01/02 02:31:47;;;;;;;4.72;2.25;;;;;;;14.67;nan;100472.19;4997859;28;20062;-85
2023/01/02 02:34:31;;;;;;;8.23;2.28;;;;;;;14.70;nan;100473.66;5018063;28;20115;-86
2023/01/02 02:37:05;;;;;;;5.72;2.00;;;;;;;14.74;nan;100481.09;5024188;28;20030;-85
2023/01/02 02:39:52;;;;;;;6.57;2.25;;;;;;;14.70;nan;100473.66;5026758;28;20065;-85
2023/01/02 02:42:53;;;;;;;7.03;2.22;;;;;;;14.68;nan;100479.16;5018228;28;20045;-85
2023/01/02 02:45:54;;;;;;;5.38;1.95;;;;;;;14.69;nan;100474.69;5027069;28;20041;-85
2023/01/02 02:48:27;;;;;;;5.07;2.10;;;;;;;14.64;nan;100473.38;5023817;28;20955;-85
2023/01/02 02:50:55;;;;;;;6.85;2.50;;;;;;;14.60;nan;100477.38;5007541;28;20025;-85
2023/01/02 02:53:31;;;;;;;4.85;2.20;;;;;;;14.59;nan;100469.59;4998812;28;20057;-85
2023/01/02 02:55:58;;;;;;;6.68;1.98;;;;;;;14.59;nan;100474.94;5028551;28;20045;-85
2023/01/02 02:58:26;;;;;;;3.70;2.03;;;;;;;14.54;nan;100482.59;5010318;28;20450;-85
2023/01/02 03:01:04;;;;;;;3.65;1.90;;;;;;;14.48;nan;100484.13;5011716;28;20053;-85
2023/01/02 03:03:30;;;;;;;4.15;1.90;;;;;;;14.45;nan;100479.16;5028335;28;20029;-85
2023/01/02 03:06:21;;;;;;;4.00;1.80;;;;;;;14.42;nan;100484.84;5029061;28;20045;-85
2023/01/02 03:09:11;;;;;;;10.13;2.17;;;;;;;14.41;nan;100480.50;5024288;28;20491;-85
2023/01/02 03:12:01;;;;;;;4.75;2.03;;;;;;;14.37;nan;100472.06;5011079;28;20038;-85
2023/01/02 03:14:50;;;;;;;5.43;2.30;;;;;;;14.38;nan;100464.91;5018338;28;20057;-85
2023/01/02 03:17:40;;;;;;;3.50;1.88;;;;;;;14.39;nan;100470.03;5005453;28;20037;-85
2023/01/02 03:20:09;;;;;;;6.10;2.03;;;;;;;14.38;nan;100460.41;5021109;28;20422;-86
2023/01/02 03:22:39;;;;;;;4.57;1.90;;;;;;;14.47;nan;100461.19;5015286;28;20425;-85
2023/01/02 03:25:08;;;;;;;3.70;2.15;;;;;;;14.52;nan;100456.16;5008120;28;20041;-85
2023/01/02 03:27:37;;;;;;;5.28;1.92;;;;;;;14.55;nan;100452.34;5028183;28;20049;-85
2023/01/02 03:30:16;;;;;;;4.45;2.00;;;;;;;14.58;nan;100443.97;5010214;28;20037;-86
2023/01/02 03:32:47;;;;;;;3.65;1.92;;;;;;;14.57;nan;100453.81;5029250;28;20060;-86
2023/01/02 03:35:18;;;;;;;4.85;2.45;;;;;;;14.57;nan;100463.63;5029429;28;20766;-85
2023/01/02 03:37:50;;;;;;;5.13;2.00;;;;;;;14.57;nan;100467.13;5010262;28;20120;-85
2023/01/02 03:40:21;;;;;;;3.95;2.00;;;;;;;14.55;nan;100463.81;5021348;28;20121;-85
2023/01/02 03:43:05;;;;;;;;;;;;;;;14.52;nan;100480.09;5020982;28;20046;-85
2023/01/02 03:45:34;;;;;;;5.50;1.88;;;;;;;14.45;nan;100476.50;5028771;28;19917;-85
2023/01/02 03:48:12;;;;;;;3.65;1.88;;;;;;;14.47;nan;100457.69;5011128;28;20033;-85
2023/01/02 03:50:59;;;;;;;6.10;1.73;;;;;;;14.46;nan;100470.16;4997656;28;20041;-85
2023/01/02 03:53:25;;;;;;;5.15;2.00;;;;;;;14.45;nan;100473.84;5029491;28;20026;-85
2023/01/02 03:56:14;;;;;;;3.40;1.80;;;;;;;14.49;nan;100479.63;5029290;28;20098;-85
2023/01/02 03:58:45;;;;;;;7.03;2.10;;;;;;;14.49;nan;100474.28;4999565;28;20048;-85
2023/01/02 04:01:36;;;;;;;3.85;1.73;;;;;;;14.50;nan;100474.13;5022560;28;20117;-85
2023/01/02 04:04:20;;;;;;;8.02;2.03;;;;;;;14.55;nan;100484.28;5028501;28;20120;-85
2023/01/02 04:06:50;;;;;;;5.35;2.30;;;;;;;14.56;nan;100484.09;5009256;28;20038;-85
2023/01/02 04:09:19;;;;;;;4.55;1.92;;;;;;;14.58;nan;100490.03;5018242;28;20029;-85
2023/01/02 04:11:51;;;;;;;4.95;1.80;;;;;;;14.59;nan;100490.91;5030060;28;20041;-85
2023/01/02 04:14:23;;;;;;;5.25;1.95;;;;;;;14.57;nan;100476.94;5032323;28;20088;-85
2023/01/02 04:16:49;;;;;;;9.52;2.28;;;;;;;14.56;nan;100486.75;5030949;28;20045;-85
2023/01/02 04:19:23;;;;;;;5.88;2.15;;;;;;;14.58;nan;100484.72;5008835;28;20093;-86
2023/01/02 04:21:54;;;;;;;5.32;2.30;;;;;;;14.55;nan;100489.59;5037841;28;20033;-87
2023/01/02 04:24:33;;;;;;;4.38;2.25;;;;;;;14.53;nan;100487.06;5039415;28;20029;-86
2023/01/02 04:27:07;;;;;;;5.00;2.13;;;;;;;14.50;nan;100491.94;5004226;28;20038;-86
2023/01/02 04:29:32;;;;;;;4.28;2.05;;;;;;;14.47;nan;100490.47;5014954;28;20042;-86
2023/01/02 04:32:07;;;;;;;4.72;2.13;;;;;;;14.47;nan;100505.56;5022822;28;20034;-86
2023/01/02 04:34:35;;;;;;;8.77;2.60;;;;;;;14.45;nan;100489.81;5011141;28;20050;-86
2023/01/02 04:37:01;;;;;;;5.65;2.38;;;;;;;14.41;nan;100496.47;5028965;28;20032;-86
2023/01/02 04:39:27;;;;;;;4.05;2.20;;;;;;;14.38;nan;100488.84;5029759;28;20038;-86
2023/01/02 04:41:53;;;;;;;5.47;2.40;;;;;;;14.33;nan;100489.38;5016877;28;20040;-86
2023/01/02 04:44:18;;;;;;;8.10;2.55;;;;;;;14.30;nan;100486.25;5012807;28;20033;-86
2023/01/02 04:46:43;;;;;;;4.43;1.92;;;;;;;14.25;nan;100484.09;5011193;28;20034;-86
2023/01/02 04:49:09;;;;;;;3.23;1.73;;;;;;;14.31;nan;100491.38;5027754;28;20407;-86
2023/01/02 04:51:34;;;;;;;3.77;1.67;;;;;;;14.38;nan;100491.50;5032162;28;20418;-86
2023/01/02 04:53:59;;;;;;;4.88;2.15;;;;;;;14.31;nan;100488.72;5015094;28;20092;-86
2023/01/02 04:56:25;;;;;;;4.57;2.13;;;;;;;14.29;nan;100492.56;5013706;28;20056;-86
2023/01/02 04:58:50;;;;;;;4.15;2.03;;;;;;;14.32;nan;100486.91;5036256;28;20052;-86
2023/01/02 05:01:18;;;;;;;4.50;2.08;;;;;;;14.28;nan;100488.25;5033329;28;20049;-86
2023/01/02 05:03:46;;;;;;;4.18;2.13;;;;;;;14.23;nan;100484.31;5035671;28;20045;-86
2023/01/02 05:06:11;;;;;;;4.78;2.10;;;;;;;14.27;nan;100494.59;5014464;28;20029;-85
2023/01/02 05:08:37;;;;;;;4.38;2.10;;;;;;;14.22;nan;100492.44;5014660;28;20092;-86
2023/01/02 05:11:08;;;;;;;6.45;2.00;;;;;;;14.23;nan;100496.78;5014884;28;20128;-86
2023/01/02 05:13:34;;;;;;;;;;;;;;;14.15;nan;100489.66;5032596;28;20053;-85
2023/01/02 05:15:59;;;;;;;4.17;2.07;;;;;;;14.16;nan;100495.84;5014952;28;20401;-86
2023/01/02 05:18:28;;;;;;;5.93;2.25;;;;;;;14.14;nan;100503.97;5029595;28;20792;-86
2023/01/02 05:21:02;;;;;;;4.18;1.83;;;;;;;14.13;nan;100499.63;5013476;28;20042;-86
2023/01/02 05:26:11;;;;;;;3.75;1.70;;;;;;;14.09;nan;100509.00;5023544;28;20069;-86
2023/01/02 05:28:37;;;;;;;3.42;1.80;;;;;;;14.03;nan;100507.03;5012721;28;20057;-86
2023/01/02 05:31:02;;;;;;;5.38;2.08;;;;;;;14.05;nan;100514.84;5013237;28;20474;-86
2023/01/02 05:33:27;;;;;;;5.90;2.15;;;;;;;14.03;nan;100507.03;5029257;28;20030;-85
2023/01/02 05:35:53;;;;;;;5.95;1.92;;;;;;;14.08;nan;100519.78;5008396;28;20550;-85
2023/01/02 05:38:18;;;;;;;3.72;1.83;;;;;;;14.09;nan;100524.94;5010205;28;20037;-86
2023/01/02 05:40:43;;;;;;;4.88;1.67;;;;;;;14.07;nan;100531.44;5012385;28;20044;-86
2023/01/02 05:43:08;;;;;;;3.88;1.60;;;;;;;14.03;nan;100523.78;5013978;28;20646;-86
2023/01/02 05:45:34;;;;;;;4.20;2.03;;;;;;;14.00;nan;100521.50;5007146;28;20117;-86
2023/01/02 05:47:59;;;;;;;5.32;1.98;;;;;;;13.92;nan;100521.53;5023089;28;20037;-86
2023/01/02 05:50:24;;;;;;;6.35;2.03;;;;;;;13.90;nan;100533.34;5011893;28;20080;-86
2023/01/02 05:52:49;;;;;;;4.45;1.45;;;;;;;13.83;nan;100549.16;5010708;28;20663;-86
2023/01/02 05:55:15;;;;;;;4.28;1.77;;;;;;;13.77;nan;100548.00;5028867;28;20034;-86
2023/01/02 05:57:40;;;;;;;6.85;1.83;;;;;;;13.76;nan;100549.00;5028215;28;20037;-86
2023/01/02 06:00:06;;;;;;;4.13;1.90;;;;;;;13.72;nan;100544.22;5012647;28;20049;-86
2023/01/02 06:02:32;;;;;;;4.85;1.83;;;;;;;13.73;nan;100548.50;5011643;28;20076;-85
2023/01/02 06:04:57;;;;;;;3.60;1.42;;;;;;;13.71;nan;100545.22;5013711;28;20423;-85
2023/01/02 06:07:23;;;;;;;5.28;1.98;;;;;;;13.66;nan;100548.41;5010686;28;20123;-85
2023/01/02 06:09:48;;;;;;;5.50;1.85;;;;;;;13.65;nan;100552.03;5036370;28;20037;-85
2023/01/02 06:12:13;;;;;;;5.22;1.75;;;;;;;13.68;nan;100553.53;4994301;28;20117;-86
2023/01/02 06:14:38;;;;;;;5.70;1.95;;;;;;;13.71;nan;100563.84;5031330;28;20514;-85
2023/01/02 06:17:04;;;;;;;3.72;1.80;;;;;;;13.70;nan;100554.19;5016733;28;20037;-85
2023/01/02 06:19:29;;;;;;;4.28;2.00;;;;;;;13.71;nan;100559.34;5012094;28;20041;-86
2023/01/02 06:21:54;;;;;;;5.88;2.03;;;;;;;13.73;nan;100559.16;5024649;28;20030;-85
2023/01/02 06:24:19;;;;;;;5.10;2.00;;;;;;;13.70;nan;100564.81;5025798;28;20565;-86
2023/01/02 06:26:45;;;;;;;5.97;2.17;;;;;;;13.70;nan;100552.34;5027528;28;20041;-85
2023/01/02 06:29:10;;;;;;;8.45;2.55;;;;;;;13.60;nan;100565.84;5012477;28;20399;-86
2023/01/02 06:31:35;;;;;;;5.40;2.17;;;;;;;13.58;nan;100580.28;5029847;28;20044;-85
2023/01/02 06:34:02;;;;;;;5.25;2.60;;;;;;;13.65;nan;100573.28;5012350;28;20462;-86
2023/01/02 06:36:32;;;;;;;5.22;1.85;;;;;;;13.60;nan;100580.94;5011566;28;20037;-85
2023/01/02 06:38:58;;;;;;;4.13;1.92;;;;;;;13.62;nan;100578.13;5012507;28;20033;-86
2023/01/02 06:41:23;;;;;;;3.83;1.80;;;;;;;13.57;nan;100575.97;5025554;28;20128;-86
2023/01/02 06:43:50;;;;;;;3.33;1.80;;;;;;;13.54;nan;100581.66;5026033;28;20029;-86
2023/01/02 06:46:17;;;;;;;6.53;1.95;;;;;;;13.50;nan;100586.47;5010703;28;20029;-86
2023/01/02 06:48:43;;;;;;;4.10;1.80;;;;;;;13.43;nan;100598.75;5029283;28;20076;-85
2023/01/02 06:51:11;;;;;;;4.72;1.77;;;;;;;13.36;nan;100592.47;5005720;28;20446;-85
2023/01/02 06:53:38;;;;;;;2.80;1.50;;;;;;;13.34;nan;100597.09;5008057;28;20045;-85
2023/01/02 06:56:04;;;;;;;2.60;1.48;;;;;;;13.33;nan;100595.47;5006974;28;20099;-86
2023/01/02 06:58:31;;;;;;;5.93;2.00;;;;;;;13.36;nan;100595.94;5023379;28;20402;-86
2023/01/02 07:01:19;;;;;;;7.15;2.10;;;;;;;13.40;nan;100599.09;5027801;28;20067;-86
2023/01/02 07:03:45;;;;;;;6.97;2.20;;;;;;;13.46;nan;100598.41;5011004;28;20097;-86
2023/01/02 07:06:18;;;;;;;5.05;1.80;;;;;;;13.52;nan;100610.22;5010082;28;20562;-85
2023/01/02 07:08:44;;;;;;;6.50;2.40;;;;;;;13.61;nan;100603.88;5025325;28;20041;-87
2023/01/02 07:11:09;;;;;;;4.95;2.00;;;;;;;13.63;nan;100598.38;5013613;28;20037;-87
2023/01/02 07:13:34;;;;;;;5.13;2.00;;;;;;;13.66;nan;100598.88;5012577;28;20037;-86
2023/01/02 07:16:05;;;;;;;7.05;2.60;;;;;;;13.76;nan;100596.84;5031086;28;20264;-86
2023/01/02 07:18:31;;;;;;;8.00;2.47;;;;;;;13.88;nan;100601.81;5011993;28;20125;-86
2023/01/02 07:20:57;;;;;;;6.80;2.05;;;;;;;13.98;nan;100608.56;5024657;28;20428;-86
2023/01/02 07:23:22;;;;;;;6.13;2.03;;;;;;;14.04;nan;100601.75;5012336;28;20148;-86
2023/01/02 07:25:53;;;;;;;5.93;1.80;;;;;;;14.13;nan;100618.47;5012924;28;20093;-87
2023/01/02 07:28:18;;;;;;;3.58;1.80;;;;;;;14.13;nan;100613.16;5009600;28;20033;-86
2023/01/02 07:30:43;;;;;;;6.28;2.10;;;;;;;14.16;nan;100626.13;5015796;28;20687;-87
2023/01/02 07:33:08;;;;;;;4.20;1.88;;;;;;;14.16;nan;100621.63;5029717;28;20479;-88
2023/01/02 07:35:34;;;;;;;7.05;2.35;;;;;;;14.18;nan;100627.63;5020612;28;20034;-86
2023/01/02 07:37:59;;;;;;;6.53;2.00;;;;;;;14.24;nan;100629.56;5021430;28;20124;-86
2023/01/02 07:40:24;;;;;;;7.40;2.00;;;;;;;14.23;nan;100630.59;5020023;28;20064;-86
2023/01/02 07:42:49;;;;;;;6.43;2.30;;;;;;;14.24;nan;100634.88;5003867;28;20277;-86
2023/01/02 07:45:15;;;;;;;4.23;1.90;;;;;;;14.24;nan;100628.75;5011400;28;20304;-87
2023/01/02 07:47:40;;;;;;;5.70;1.83;;;;;;;14.24;nan;100632.22;5011593;28;20368;-86
2023/01/02 07:50:05;;;;;;;4.73;2.20;;;;;;;14.31;nan;100636.88;5033329;28;20115;-86
2023/01/02 07:52:31;;;;;;;6.68;2.05;;;;;;;14.40;nan;100643.81;5004897;28;20269;-86
2023/01/02 07:54:56;;;;;;;7.70;2.30;;;;;;;14.46;nan;100640.44;5012707;28;20040;-86
2023/01/02 07:57:21;;;;;;;5.78;2.00;;;;;;;14.47;nan;100635.94;5027442;28;20128;-87
2023/01/02 07:59:48;;;;;;;5.30;1.75;;;;;;;14.49;nan;100639.25;5027175;28;20103;-86
2023/01/02 08:02:14;;;;;;;6.72;2.20;;;;;;;14.52;nan;100646.91;5029415;28;20029;-87
2023/01/02 08:04:39;;;;;;;5.78;1.88;;;;;;;14.52;nan;100645.06;5027614;28;20749;-87
2023/01/02 08:07:05;;;;;;;6.18;2.22;;;;;;;14.55;nan;100644.75;5013499;28;20519;-87
2023/01/02 08:09:38;;;;;;;7.88;2.30;;;;;;;14.59;nan;100642.59;5036960;28;20021;-87
2023/01/02 08:12:03;;;;;;;6.15;2.47;;;;;;;14.64;nan;100637.56;5003197;28;20488;-87
2023/01/02 08:14:29;;;;;;;8.20;2.60;;;;;;;14.71;nan;100637.69;5018088;28;20059;-86
2023/01/02 08:16:54;;;;;;;8.27;2.15;;;;;;;14.78;nan;100642.13;5016575;28;20037;-86
2023/01/02 08:19:19;;;;;;;9.23;2.10;;;;;;;14.82;nan;100645.25;5016070;28;20045;-86
2023/01/02 08:21:45;;;;;;;7.20;2.03;;;;;;;14.84;nan;100646.72;5051873;28;20049;-87
2023/01/02 08:24:10;;;;;;;8.07;2.30;;;;;;;14.89;nan;100648.03;5038888;28;20319;-86
2023/01/02 08:26:35;;;;;;;4.32;1.88;;;;;;;14.89;nan;100651.53;5036688;28;20049;-87
2023/01/02 08:29:00;;;;;;;7.10;1.85;;;;;;;14.87;nan;100653.53;5034735;28;20030;-86
2023/01/02 08:31:27;;;;;;;9.55;2.15;;;;;;;14.89;nan;100664.00;5023837;28;20022;-86
2023/01/02 08:33:52;;;;;;;7.43;2.00;;;;;;;14.83;nan;100668.22;5004807;28;20029;-85
2023/01/02 08:36:17;;;;;;;8.97;2.27;;;;;;;14.85;nan;100676.88;5016294;28;20521;-86
2023/01/02 08:38:43;;;;;;;7.63;2.53;;;;;;;14.93;nan;100681.31;5018271;28;20288;-86
2023/01/02 08:41:08;;;;;;;7.75;2.22;;;;;;;14.93;nan;100681.31;5019362;28;20384;-85
2023/01/02 08:43:35;;;;;;;6.38;2.00;;;;;;;14.94;nan;100680.28;5017351;28;20053;-86
2023/01/02 08:46:05;;;;;;;6.03;1.88;;;;;;;14.96;nan;100683.59;5022199;28;20025;-86
2023/01/02 08:48:31;;;;;;;6.50;1.70;;;;;;;14.99;nan;100681.44;5019029;28;20041;-86
2023/01/02 08:50:56;;;;;;;9.48;2.25;;;;;;;14.99;nan;100686.75;5038058;28;20332;-85
2023/01/02 08:53:21;;;;;;;5.00;1.95;;;;;;;15.01;nan;100687.38;5033650;28;20478;-85
2023/01/02 08:55:47;;;;;;;6.25;1.92;;;;;;;15.01;nan;100690.03;5039810;28;20053;-86
2023/01/02 08:58:15;;;;;;;5.40;2.17;;;;;;;15.02;nan;100690.91;5025036;28;20040;-85
2023/01/02 09:00:41;;;;;;;7.78;1.90;;;;;;;15.00;nan;100699.06;5036550;28;20041;-85
2023/01/02 09:03:06;;;;;;;8.18;2.20;;;;;;;14.98;nan;100703.72;5018643;28;20021;-87
2023/01/02 09:05:33;;;;;;;7.03;2.25;;;;;;;14.94;nan;100699.75;5035588;28;20522;-85
2023/01/02 09:08:00;;;;;;;8.05;2.20;;;;;;;14.95;nan;100705.91;5018011;28;20092;-85
2023/01/02 09:10:26;;;;;;;7.03;2.00;;;;;;;14.92;nan;100714.25;5014530;28;20033;-85
2023/01/02 09:12:51;;;;;;;9.52;2.35;;;;;;;14.94;nan;100723.72;5014902;28;20048;-85
2023/01/02 09:15:16;;;;;;;5.78;2.20;;;;;;;14.91;nan;100726.72;5031610;28;20034;-85
2023/01/02 09:17:42;;;;;;;5.93;2.00;;;;;;;14.95;nan;100729.88;5018353;28;20087;-86
2023/01/02 09:20:07;;;;;;;7.07;2.40;;;;;;;14.92;nan;100740.88;5012183;28;20040;-87
2023/01/02 09:22:33;;;;;;;6.60;2.53;;;;;;;14.93;nan;100742.53;5013534;28;20334;-86
2023/01/02 09:24:58;;;;;;;7.85;2.47;;;;;;;14.90;nan;100749.06;5030991;28;20049;-85
2023/01/02 09:27:23;;;;;;;7.68;2.53;;;;;;;14.91;nan;100744.53;5021302;28;20053;-85
2023/01/02 09:29:49;;;;;;;5.55;2.38;;;;;;;14.89;nan;100738.56;5029263;28;21304;-86
2023/01/02 09:32:14;;;;;;;8.77;2.22;;;;;;;14.90;nan;100737.53;5030919;28;20033;-86
2023/01/02 09:34:40;;;;;;;6.53;2.00;;;;;;;14.94;nan;100745.00;5015305;28;20045;-85
2023/01/02 09:37:05;;;;;;;7.35;2.65;;;;;;;15.00;nan;100746.16;5032232;28;20403;-85
2023/01/02 09:39:30;;;;;;;7.32;2.45;;;;;;;15.04;nan;100747.44;5028181;28;20033;-85
2023/01/02 09:41:59;;;;;;;7.95;2.72;;;;;;;15.12;nan;100744.75;5011836;28;20034;-85
2023/01/02 09:44:41;;;;;;;7.65;2.65;;;;;;;15.16;nan;100754.06;5019964;28;20104;-85
2023/01/02 09:47:17;;;;;;;8.23;2.55;;;;;;;15.20;nan;100754.53;5038745;28;20395;-85
2023/01/02 09:49:50;;;;;;;7.53;2.72;;;;;;;15.27;nan;100763.47;5027128;28;20071;-85
2023/01/02 09:52:24;;;;;;;7.50;3.05;;;;;;;15.35;nan;100758.09;5009934;28;20030;-85
2023/01/02 09:54:49;;;;;;;11.88;3.00;;;;;;;15.41;nan;100761.88;5034350;28;20037;-84
2023/01/02 09:57:29;;;;;;;9.50;2.88;;;;;;;15.53;nan;100765.78;5038088;28;20039;-85
2023/01/02 10:00:14;;;;;;;6.63;2.85;;;;;;;15.65;nan;100761.69;5016445;28;20085;-85
2023/01/02 10:03:17;;;;;;;6.60;2.85;;;;;;;15.67;nan;100759.66;5023502;28;20037;-85
2023/01/02 10:06:11;;;;;;;7.72;2.80;;;;;;;15.58;nan;100765.25;5007864;28;20107;-85
2023/01/02 10:08:47;;;;;;;6.07;2.30;;;;;;;15.48;nan;100755.66;5013738;28;20049;-85
2023/01/02 10:11:44;;;;;;;10.23;2.53;;;;;;;15.43;nan;100763.34;5022472;28;20038;-85
2023/01/02 10:14:25;;;;;;;8.00;2.70;;;;;;;15.44;nan;100761.50;5017168;28;20064;-85
2023/01/02 10:16:54;;;;;;;7.78;2.80;;;;;;;15.40;nan;100760.22;5037314;28;20038;-85
2023/01/02 10:19:33;;;;;;;7.30;2.40;;;;;;;15.64;nan;100768.03;5035517;28;20033;-85
2023/01/02 10:22:00;;;;;;;10.30;2.70;;;;;;;15.85;nan;100772.72;5033289;28;20064;-85
2023/01/02 10:24:45;;;;;;;6.70;2.55;;;;;;;15.97;nan;100770.47;5030298;28;20138;-85
2023/01/02 10:27:20;;;;;;;7.05;2.17;;;;;;;16.07;nan;100776.34;5026296;28;20029;-85
2023/01/02 10:29:55;;;;;;;8.27;2.42;;;;;;;16.10;nan;100773.31;5020437;28;20029;-85
2023/01/02 10:32:21;;;;;;;7.07;2.70;;;;;;;16.10;nan;100777.81;5015317;28;20521;-85
2023/01/02 10:34:59;;;;;;;8.13;2.53;;;;;;;16.08;nan;100783.34;5019082;28;20033;-85
2023/01/02 10:37:25;;;;;;;6.30;2.55;;;;;;;16.07;nan;100780.88;5017445;28;20406;-85
2023/01/02 10:39:51;;;;;;;8.70;2.42;;;;;;;16.08;nan;100787.84;5016818;28;20486;-85
2023/01/02 10:42:16;;;;;;;7.65;2.60;;;;;;;16.10;nan;100783.97;5033354;28;20041;-85
2023/01/02 10:44:44;;;;;;;7.63;2.65;;;;;;;16.30;nan;100780.78;5017099;28;20080;-85
2023/01/02 10:47:36;;;;;;;10.20;2.60;;;;;;;16.46;nan;100771.78;5034108;28;20025;-86
2023/01/02 10:50:07;;;;;;;6.70;2.65;;;;;;;16.64;nan;100761.56;5031958;28;20526;-86
2023/01/02 10:52:33;;;;;;;;;;;;;;;16.76;nan;100765.41;5033711;28;20041;-85
2023/01/02 10:55:00;;;;;;;6.55;2.85;;;;;;;16.85;nan;100774.19;5034717;28;19917;-85
2023/01/02 10:57:39;;;;;;;6.65;2.53;;;;;;;16.93;nan;100778.59;5016759;28;20454;-86
2023/01/02 11:00:07;;;;;;;9.30;2.50;;;;;;;17.02;nan;100768.59;5031919;28;20041;-85
2023/01/02 11:02:38;;;;;;;7.57;2.50;;;;;;;17.04;nan;100763.88;5017969;28;20445;-85
2023/01/02 11:05:04;;;;;;;6.82;2.72;;;;;;;17.04;nan;100777.25;5028908;28;20064;-85
2023/01/02 11:07:35;;;;;;;10.18;2.70;;;;;;;17.07;nan;100776.91;5015178;28;20053;-85
2023/01/02 11:10:00;;;;;;;8.38;2.55;;;;;;;17.15;nan;100774.09;5014255;28;20117;-85
2023/01/02 11:12:26;;;;;;;8.02;2.42;;;;;;;17.23;nan;100767.81;5009149;28;20048;-85
2023/01/02 11:14:51;;;;;;;10.07;3.13;;;;;;;17.30;nan;100766.03;5021681;28;20045;-85
2023/01/02 11:17:22;;;;;;;6.63;2.25;;;;;;;17.31;nan;100771.19;5031037;28;20026;-86
2023/01/02 11:19:53;;;;;;;7.22;2.33;;;;;;;17.23;nan;100770.47;5024401;28;20044;-85
2023/01/02 11:22:22;;;;;;;8.63;2.22;;;;;;;17.01;nan;100775.78;5006751;28;20415;-86
2023/01/02 11:25:00;;;;;;;8.00;2.40;;;;;;;16.75;nan;100777.09;5013861;28;20033;-85
2023/01/02 11:27:35;;;;;;;7.00;2.33;;;;;;;16.37;nan;100783.56;5006425;28;20033;-85
2023/01/02 11:30:01;;;;;;;6.75;2.25;;;;;;;16.17;nan;100781.41;5017161;28;20537;-85
2023/01/02 11:32:34;;;;;;;7.55;2.75;;;;;;;15.88;nan;100788.34;5013352;28;20124;-86
2023/01/02 11:35:01;;;;;;;5.07;1.98;;;;;;;15.60;nan;100788.03;5018483;28;20037;-85
2023/01/02 11:37:27;;;;;;;6.28;2.38;;;;;;;15.34;nan;100782.25;5018972;28;20030;-86
2023/01/02 11:40:25;;;;;;;4.75;1.80;;;;;;;15.07;nan;100793.22;5017266;28;20104;-86
2023/01/02 11:45:38;;;;;;;7.85;1.80;;;;;;;15.03;nan;100781.25;5030879;28;20049;-86
2023/01/02 11:48:10;;;;;;;8.23;2.05;;;;;;;15.23;nan;100794.97;5015342;28;20033;-86
2023/01/02 11:50:37;;;;;;;5.68;1.65;;;;;;;15.32;nan;100794.91;5017796;28;20042;-86
2023/01/02 11:53:11;;;;;;;6.85;1.92;;;;;;;15.42;nan;100791.03;5033736;28;20033;-86
2023/01/02 11:55:54;;;;;;;5.13;1.85;;;;;;;15.50;nan;100787.47;5031924;28;20558;-86
2023/01/02 11:58:54;;;;;;;8.13;2.25;;;;;;;15.51;nan;100784.59;5020587;28;20518;-86
2023/01/02 12:01:47;;;;;;;4.53;1.63;;;;;;;15.56;nan;100792.06;5013839;28;20048;-87